sensor_id;sensor_type;location;lat;lon;timestamp;pressure;altitude;pressure_sealevel;temperature;humidity
49813;BME280;35706;52.100;5.056;2023-02-22T00:00:05;101505.56;;;7.03;100.00
49813;BME280;35706;52.100;5.056;2023-02-22T00:01:18;101506.09;;;6.93;100.00
49813;BME280;35706;52.100;5.056;2023-02-22T00:02:22;101509.09;;;6.87;100.00
49813;BME280;35706;52.100;5.056;2023-02-22T00:03:28;101512.59;;;6.88;100.00
49813;BME280;35706;52.100;5.056;2023-02-22T00:04:31;101507.69;;;6.96;100.00
49813;BME280;35706;52.100;5.056;2023-02-22T00:05:34;101513.56;;;7.00;100.00
49813;BME280;35706;52.100;5.056;2023-02-22T00:06:34;101518.50;;;7.04;100.00
49813;BME280;35706;52.100;5.056;2023-02-22T00:07:35;101525.53;;;6.89;100.00
49813;BME280;35706;52.100;5.056;2023-02-22T00:08:36;101504.00;;;6.86;100.00
49813;BME280;35706;52.100;5.056;2023-02-22T00:09:36;101510.59;;;6.77;100.00
49813;BME280;35706;52.100;5.056;2023-02-22T00:10:36;101515.66;;;6.80;100.00
49813;BME280;35706;52.100;5.056;2023-02-22T00:11:37;101510.69;;;6.90;100.00
49813;BME280;35706;52.100;5.056;2023-02-22T00:12:41;101508.56;;;6.82;100.00
49813;BME280;35706;52.100;5.056;2023-02-22T00:13:42;101507.28;;;6.61;100.00
49813;BME280;35706;52.100;5.056;2023-02-22T00:14:44;101506.78;;;6.68;100.00
49813;BME280;35706;52.100;5.056;2023-02-22T00:15:44;101501.03;;;6.78;100.00
49813;BME280;35706;52.100;5.056;2023-02-22T00:16:45;101510.69;;;6.90;100.00
49813;BME280;35706;52.100;5.056;2023-02-22T00:17:45;101504.53;;;6.91;100.00
49813;BME280;35706;52.100;5.056;2023-02-22T00:18:46;101509.47;;;6.96;100.00
49813;BME280;35706;52.100;5.056;2023-02-22T00:19:47;101500.72;;;6.97;100.00
49813;BME280;35706;52.100;5.056;2023-02-22T00:20:47;101510.94;;;7.00;100.00
49813;BME280;35706;52.100;5.056;2023-02-22T00:21:51;101495.09;;;7.03;100.00
49813;BME280;35706;52.100;5.056;2023-02-22T00:22:52;101495.00;;;6.90;100.00
49813;BME280;35706;52.100;5.056;2023-02-22T00:23:53;101501.38;;;6.86;100.00
49813;BME280;35706;52.100;5.056;2023-02-22T00:24:56;101495.75;;;6.92;100.00
49813;BME280;35706;52.100;5.056;2023-02-22T00:25:58;101501.53;;;6.97;100.00
49813;BME280;35706;52.100;5.056;2023-02-22T00:26:58;101492.06;;;6.82;100.00
49813;BME280;35706;52.100;5.056;2023-02-22T00:27:59;101502.00;;;6.89;100.00
49813;BME280;35706;52.100;5.056;2023-02-22T00:29:00;101498.31;;;6.65;100.00
49813;BME280;35706;52.100;5.056;2023-02-22T00:30:01;101492.81;;;6.69;100.00
49813;BME280;35706;52.100;5.056;2023-02-22T00:31:02;101493.63;;;6.84;100.00
49813;BME280;35706;52.100;5.056;2023-02-22T00:32:04;101494.81;;;6.93;100.00
49813;BME280;35706;52.100;5.056;2023-02-22T00:33:04;101490.44;;;6.93;100.00
49813;BME280;35706;52.100;5.056;2023-02-22T00:34:05;101485.88;;;6.83;100.00
49813;BME280;35706;52.100;5.056;2023-02-22T00:35:05;101489.31;;;6.83;100.00
49813;BME280;35706;52.100;5.056;2023-02-22T00:36:09;101491.56;;;6.75;100.00
49813;BME280;35706;52.100;5.056;2023-02-22T00:37:10;101494.63;;;6.96;100.00
49813;BME280;35706;52.100;5.056;2023-02-22T00:38:12;101493.41;;;7.02;100.00
49813;BME280;35706;52.100;5.056;2023-02-22T00:39:21;101487.06;;;6.91;100.00
49813;BME280;35706;52.100;5.056;2023-02-22T00:40:23;101486.53;;;6.86;100.00
49813;BME280;35706;52.100;5.056;2023-02-22T00:41:24;101490.50;;;6.92;100.00
49813;BME280;35706;52.100;5.056;2023-02-22T00:42:24;101480.53;;;6.99;100.00
49813;BME280;35706;52.100;5.056;2023-02-22T00:43:25;101478.19;;;6.94;100.00
49813;BME280;35706;52.100;5.056;2023-02-22T00:44:25;101473.47;;;6.86;100.00
49813;BME280;35706;52.100;5.056;2023-02-22T00:45:28;101471.97;;;6.82;100.00
49813;BME280;35706;52.100;5.056;2023-02-22T00:46:28;101474.56;;;6.97;100.00
49813;BME280;35706;52.100;5.056;2023-02-22T00:47:29;101478.78;;;6.70;100.00
49813;BME280;35706;52.100;5.056;2023-02-22T00:48:29;101471.31;;;6.79;100.00
49813;BME280;35706;52.100;5.056;2023-02-22T00:49:29;101475.69;;;6.92;100.00
49813;BME280;35706;52.100;5.056;2023-02-22T00:50:30;101470.91;;;6.99;100.00
49813;BME280;35706;52.100;5.056;2023-02-22T00:51:31;101458.31;;;6.91;100.00
49813;BME280;35706;52.100;5.056;2023-02-22T00:52:32;101471.03;;;6.83;100.00
49813;BME280;35706;52.100;5.056;2023-02-22T00:53:35;101460.31;;;6.88;100.00
49813;BME280;35706;52.100;5.056;2023-02-22T00:54:35;101462.34;;;6.97;100.00
49813;BME280;35706;52.100;5.056;2023-02-22T00:55:36;101466.56;;;6.85;100.00
49813;BME280;35706;52.100;5.056;2023-02-22T00:56:37;101466.25;;;6.90;100.00
49813;BME280;35706;52.100;5.056;2023-02-22T00:57:37;101466.38;;;6.88;100.00
49813;BME280;35706;52.100;5.056;2023-02-22T00:58:37;101462.88;;;7.02;100.00
49813;BME280;35706;52.100;5.056;2023-02-22T00:59:38;101459.63;;;6.99;100.00
49813;BME280;35706;52.100;5.056;2023-02-22T01:00:40;101467.34;;;7.00;100.00
49813;BME280;35706;52.100;5.056;2023-02-22T01:01:41;101463.72;;;7.03;100.00
49813;BME280;35706;52.100;5.056;2023-02-22T01:02:42;101466.06;;;6.93;100.00
49813;BME280;35706;52.100;5.056;2023-02-22T01:03:43;101469.34;;;6.97;100.00
49813;BME280;35706;52.100;5.056;2023-02-22T01:04:44;101459.56;;;6.86;100.00
49813;BME280;35706;52.100;5.056;2023-02-22T01:05:45;101454.34;;;6.86;100.00
49813;BME280;35706;52.100;5.056;2023-02-22T01:06:45;101467.84;;;6.92;100.00
49813;BME280;35706;52.100;5.056;2023-02-22T01:07:47;101460.19;;;6.89;100.00
49813;BME280;35706;52.100;5.056;2023-02-22T01:08:48;101473.81;;;6.95;100.00
49813;BME280;35706;52.100;5.056;2023-02-22T01:09:48;101476.31;;;6.69;100.00
49813;BME280;35706;52.100;5.056;2023-02-22T01:10:49;101464.22;;;6.81;100.00
49813;BME280;35706;52.100;5.056;2023-02-22T01:11:52;101467.41;;;6.86;100.00
49813;BME280;35706;52.100;5.056;2023-02-22T01:12:55;101467.13;;;6.90;100.00
49813;BME280;35706;52.100;5.056;2023-02-22T01:13:55;101461.53;;;6.82;100.00
49813;BME280;35706;52.100;5.056;2023-02-22T01:14:56;101463.03;;;6.72;100.00
49813;BME280;35706;52.100;5.056;2023-02-22T01:15:57;101471.25;;;6.66;100.00
49813;BME280;35706;52.100;5.056;2023-02-22T01:16:57;101473.22;;;6.62;100.00
49813;BME280;35706;52.100;5.056;2023-02-22T01:17:58;101468.38;;;6.42;100.00
49813;BME280;35706;52.100;5.056;2023-02-22T01:18:58;101464.19;;;6.39;100.00
49813;BME280;35706;52.100;5.056;2023-02-22T01:20:00;101468.09;;;6.32;100.00
49813;BME280;35706;52.100;5.056;2023-02-22T01:21:02;101475.66;;;6.22;100.00
49813;BME280;35706;52.100;5.056;2023-02-22T01:22:02;101468.09;;;6.46;100.00
49813;BME280;35706;52.100;5.056;2023-02-22T01:23:05;101467.16;;;6.47;100.00
49813;BME280;35706;52.100;5.056;2023-02-22T01:24:06;101470.59;;;6.62;100.00
49813;BME280;35706;52.100;5.056;2023-02-22T01:25:09;101466.84;;;6.66;100.00
49813;BME280;35706;52.100;5.056;2023-02-22T01:26:09;101466.31;;;6.47;100.00
49813;BME280;35706;52.100;5.056;2023-02-22T01:27:10;101460.34;;;6.30;100.00
49813;BME280;35706;52.100;5.056;2023-02-22T01:28:11;101464.72;;;6.16;100.00
49813;BME280;35706;52.100;5.056;2023-02-22T01:29:13;101468.75;;;6.36;100.00
49813;BME280;35706;52.100;5.056;2023-02-22T01:30:16;101461.69;;;6.38;100.00
49813;BME280;35706;52.100;5.056;2023-02-22T01:31:18;101466.91;;;6.38;100.00
49813;BME280;35706;52.100;5.056;2023-02-22T01:32:19;101467.44;;;6.43;100.00
49813;BME280;35706;52.100;5.056;2023-02-22T01:33:19;101461.19;;;6.45;100.00
49813;BME280;35706;52.100;5.056;2023-02-22T01:34:21;101473.31;;;6.61;100.00
49813;BME280;35706;52.100;5.056;2023-02-22T01:35:25;101461.84;;;6.63;100.00
49813;BME280;35706;52.100;5.056;2023-02-22T01:36:26;101466.97;;;6.65;100.00
49813;BME280;35706;52.100;5.056;2023-02-22T01:37:27;101462.31;;;6.56;100.00
49813;BME280;35706;52.100;5.056;2023-02-22T01:38:27;101458.03;;;6.69;100.00
49813;BME280;35706;52.100;5.056;2023-02-22T01:39:27;101461.00;;;6.63;100.00
49813;BME280;35706;52.100;5.056;2023-02-22T01:40:31;101458.84;;;6.69;100.00
49813;BME280;35706;52.100;5.056;2023-02-22T01:41:32;101453.34;;;6.60;100.00
49813;BME280;35706;52.100;5.056;2023-02-22T01:42:32;101455.88;;;6.47;100.00
49813;BME280;35706;52.100;5.056;2023-02-22T01:43:33;101445.13;;;6.51;100.00
49813;BME280;35706;52.100;5.056;2023-02-22T01:44:35;101444.59;;;6.61;100.00
49813;BME280;35706;52.100;5.056;2023-02-22T01:45:44;101451.19;;;6.66;100.00
49813;BME280;35706;52.100;5.056;2023-02-22T01:46:46;101445.56;;;6.72;99.16
49813;BME280;35706;52.100;5.056;2023-02-22T01:47:47;101446.25;;;6.47;99.15
49813;BME280;35706;52.100;5.056;2023-02-22T01:48:51;101451.97;;;6.40;99.74
49813;BME280;35706;52.100;5.056;2023-02-22T01:49:53;101445.63;;;6.44;99.72
49813;BME280;35706;52.100;5.056;2023-02-22T01:51:01;101438.91;;;6.40;100.00
49813;BME280;35706;52.100;5.056;2023-02-22T01:52:05;101449.25;;;6.41;100.00
49813;BME280;35706;52.100;5.056;2023-02-22T01:53:10;101439.19;;;6.49;99.51
49813;BME280;35706;52.100;5.056;2023-02-22T01:54:19;101444.03;;;6.41;99.30
49813;BME280;35706;52.100;5.056;2023-02-22T01:55:20;101435.47;;;6.25;99.59
49813;BME280;35706;52.100;5.056;2023-02-22T01:56:24;101435.72;;;6.35;100.00
49813;BME280;35706;52.100;5.056;2023-02-22T01:57:30;101438.72;;;6.43;100.00
49813;BME280;35706;52.100;5.056;2023-02-22T01:58:34;101436.84;;;6.45;99.92
49813;BME280;35706;52.100;5.056;2023-02-22T01:59:39;101437.22;;;6.39;99.78
49813;BME280;35706;52.100;5.056;2023-02-22T02:00:41;101430.97;;;6.41;100.00
49813;BME280;35706;52.100;5.056;2023-02-22T02:01:43;101424.16;;;6.39;100.00
49813;BME280;35706;52.100;5.056;2023-02-22T02:02:47;101429.50;;;6.37;100.00
49813;BME280;35706;52.100;5.056;2023-02-22T02:03:48;101435.81;;;6.47;100.00
49813;BME280;35706;52.100;5.056;2023-02-22T02:04:51;101431.72;;;6.43;100.00
49813;BME280;35706;52.100;5.056;2023-02-22T02:05:53;101428.28;;;6.43;99.62
49813;BME280;35706;52.100;5.056;2023-02-22T02:06:57;101417.38;;;6.36;99.07
49813;BME280;35706;52.100;5.056;2023-02-22T02:08:07;101420.72;;;6.38;99.93
49813;BME280;35706;52.100;5.056;2023-02-22T02:10:50;101419.31;;;6.32;99.97
49813;BME280;35706;52.100;5.056;2023-02-22T02:11:52;101413.06;;;6.49;99.76
49813;BME280;35706;52.100;5.056;2023-02-22T02:12:53;101415.84;;;6.61;98.42
49813;BME280;35706;52.100;5.056;2023-02-22T02:13:56;101412.94;;;6.65;98.28
49813;BME280;35706;52.100;5.056;2023-02-22T02:15:23;101408.41;;;6.55;98.33
49813;BME280;35706;52.100;5.056;2023-02-22T02:16:33;101413.44;;;6.43;98.98
49813;BME280;35706;52.100;5.056;2023-02-22T02:17:34;101410.28;;;6.38;99.78
49813;BME280;35706;52.100;5.056;2023-02-22T02:18:36;101414.31;;;6.44;99.89
49813;BME280;35706;52.100;5.056;2023-02-22T02:29:34;101404.69;;;6.44;98.05
49813;BME280;35706;52.100;5.056;2023-02-22T02:30:42;101402.00;;;6.31;98.82
49813;BME280;35706;52.100;5.056;2023-02-22T02:33:28;101396.03;;;6.29;98.44
49813;BME280;35706;52.100;5.056;2023-02-22T02:34:32;101394.16;;;6.31;99.22
49813;BME280;35706;52.100;5.056;2023-02-22T02:36:59;101398.25;;;6.36;99.06
49813;BME280;35706;52.100;5.056;2023-02-22T02:38:30;101391.09;;;6.39;98.31
49813;BME280;35706;52.100;5.056;2023-02-22T02:39:47;101391.94;;;6.25;97.97
49813;BME280;35706;52.100;5.056;2023-02-22T02:41:17;101404.78;;;6.28;98.85
49813;BME280;35706;52.100;5.056;2023-02-22T02:42:25;101395.00;;;6.18;98.24
49813;BME280;35706;52.100;5.056;2023-02-22T02:45:03;101388.28;;;6.14;98.84
49813;BME280;35706;52.100;5.056;2023-02-22T02:46:29;101382.44;;;5.96;98.48
49813;BME280;35706;52.100;5.056;2023-02-22T02:47:35;101386.72;;;6.11;99.18
49813;BME280;35706;52.100;5.056;2023-02-22T02:48:44;101388.28;;;6.14;98.75
49813;BME280;35706;52.100;5.056;2023-02-22T02:49:50;101378.75;;;5.84;99.44
49813;BME280;35706;52.100;5.056;2023-02-22T02:50:57;101378.88;;;5.82;100.00
49813;BME280;35706;52.100;5.056;2023-02-22T02:51:59;101375.88;;;5.74;100.00
49813;BME280;35706;52.100;5.056;2023-02-22T02:53:04;101374.19;;;5.87;100.00
49813;BME280;35706;52.100;5.056;2023-02-22T02:54:07;101373.91;;;5.92;100.00
49813;BME280;35706;52.100;5.056;2023-02-22T02:55:08;101370.47;;;5.77;100.00
49813;BME280;35706;52.100;5.056;2023-02-22T02:56:10;101369.63;;;5.91;100.00
49813;BME280;35706;52.100;5.056;2023-02-22T02:57:11;101372.09;;;6.08;100.00
49813;BME280;35706;52.100;5.056;2023-02-22T02:58:17;101378.41;;;6.04;99.90
49813;BME280;35706;52.100;5.056;2023-02-22T02:59:32;101370.38;;;6.22;99.66
49813;BME280;35706;52.100;5.056;2023-02-22T03:00:38;101370.13;;;6.12;99.27
49813;BME280;35706;52.100;5.056;2023-02-22T03:02:02;101369.56;;;6.21;99.79
49813;BME280;35706;52.100;5.056;2023-02-22T03:07:19;101363.13;;;6.13;99.91
49813;BME280;35706;52.100;5.056;2023-02-22T03:08:33;101362.00;;;6.17;99.09
49813;BME280;35706;52.100;5.056;2023-02-22T03:11:10;101363.13;;;6.13;99.29
49813;BME280;35706;52.100;5.056;2023-02-22T03:13:48;101356.63;;;6.05;99.44
49813;BME280;35706;52.100;5.056;2023-02-22T03:15:02;101353.72;;;6.10;99.95
49813;BME280;35706;52.100;5.056;2023-02-22T03:16:41;101355.97;;;6.02;100.00
49813;BME280;35706;52.100;5.056;2023-02-22T03:17:51;101352.41;;;6.03;100.00
49813;BME280;35706;52.100;5.056;2023-02-22T03:18:58;101349.16;;;5.99;100.00
49813;BME280;35706;52.100;5.056;2023-02-22T03:20:11;101352.78;;;5.97;100.00
49813;BME280;35706;52.100;5.056;2023-02-22T03:21:24;101351.50;;;6.04;100.00
49813;BME280;35706;52.100;5.056;2023-02-22T03:22:32;101346.88;;;5.64;100.00
49813;BME280;35706;52.100;5.056;2023-02-22T03:25:04;101350.69;;;5.59;100.00
49813;BME280;35706;52.100;5.056;2023-02-22T03:26:10;101345.59;;;5.71;100.00
49813;BME280;35706;52.100;5.056;2023-02-22T03:27:19;101343.53;;;5.91;100.00
49813;BME280;35706;52.100;5.056;2023-02-22T03:28:24;101343.47;;;5.78;100.00
49813;BME280;35706;52.100;5.056;2023-02-22T03:29:26;101340.00;;;5.92;100.00
49813;BME280;35706;52.100;5.056;2023-02-22T03:30:36;101344.59;;;6.03;100.00
49813;BME280;35706;52.100;5.056;2023-02-22T03:31:41;101341.13;;;6.02;100.00
49813;BME280;35706;52.100;5.056;2023-02-22T03:32:47;101336.13;;;5.99;100.00
49813;BME280;35706;52.100;5.056;2023-02-22T03:33:51;101341.50;;;5.96;100.00
49813;BME280;35706;52.100;5.056;2023-02-22T03:34:57;101330.88;;;5.85;100.00
49813;BME280;35706;52.100;5.056;2023-02-22T03:36:04;101334.25;;;6.01;100.00
49813;BME280;35706;52.100;5.056;2023-02-22T03:37:13;101334.44;;;6.13;99.75
49813;BME280;35706;52.100;5.056;2023-02-22T03:38:18;101335.81;;;6.18;98.96
49813;BME280;35706;52.100;5.056;2023-02-22T03:39:19;101336.75;;;6.03;99.43
49813;BME280;35706;52.100;5.056;2023-02-22T03:40:25;101334.16;;;5.88;99.99
49813;BME280;35706;52.100;5.056;2023-02-22T03:41:28;101331.91;;;5.97;100.00
49813;BME280;35706;52.100;5.056;2023-02-22T03:42:32;101341.03;;;5.89;100.00
49813;BME280;35706;52.100;5.056;2023-02-22T03:43:45;101336.91;;;5.71;100.00
49813;BME280;35706;52.100;5.056;2023-02-22T03:44:48;101330.69;;;5.59;100.00
49813;BME280;35706;52.100;5.056;2023-02-22T03:45:49;101329.19;;;5.69;100.00
49813;BME280;35706;52.100;5.056;2023-02-22T03:46:53;101324.63;;;5.73;100.00
49813;BME280;35706;52.100;5.056;2023-02-22T03:48:03;101326.41;;;5.72;100.00
49813;BME280;35706;52.100;5.056;2023-02-22T03:49:27;101330.19;;;5.67;100.00
49813;BME280;35706;52.100;5.056;2023-02-22T03:50:32;101323.50;;;5.63;100.00
49813;BME280;35706;52.100;5.056;2023-02-22T03:51:34;101321.53;;;5.66;100.00
49813;BME280;35706;52.100;5.056;2023-02-22T03:52:35;101318.50;;;5.74;100.00
49813;BME280;35706;52.100;5.056;2023-02-22T03:53:36;101318.84;;;5.68;100.00
49813;BME280;35706;52.100;5.056;2023-02-22T03:54:38;101319.69;;;5.83;100.00
49813;BME280;35706;52.100;5.056;2023-02-22T03:55:38;101315.03;;;5.88;100.00
49813;BME280;35706;52.100;5.056;2023-02-22T03:56:49;101316.69;;;5.60;100.00
49813;BME280;35706;52.100;5.056;2023-02-22T03:57:56;101307.38;;;5.56;100.00
49813;BME280;35706;52.100;5.056;2023-02-22T03:58:57;101316.53;;;5.63;100.00
49813;BME280;35706;52.100;5.056;2023-02-22T03:59:58;101309.63;;;5.77;100.00
49813;BME280;35706;52.100;5.056;2023-02-22T04:00:58;101307.78;;;5.79;100.00
49813;BME280;35706;52.100;5.056;2023-02-22T04:01:59;101305.69;;;5.84;100.00
49813;BME280;35706;52.100;5.056;2023-02-22T04:02:59;101301.47;;;5.97;100.00
49813;BME280;35706;52.100;5.056;2023-02-22T04:04:01;101300.78;;;5.94;100.00
49813;BME280;35706;52.100;5.056;2023-02-22T04:05:01;101306.38;;;6.02;100.00
49813;BME280;35706;52.100;5.056;2023-02-22T04:06:02;101300.03;;;5.91;100.00
49813;BME280;35706;52.100;5.056;2023-02-22T04:07:03;101296.25;;;5.97;100.00
49813;BME280;35706;52.100;5.056;2023-02-22T04:08:03;101295.22;;;6.00;100.00
49813;BME280;35706;52.100;5.056;2023-02-22T04:09:05;101292.97;;;6.08;100.00
49813;BME280;35706;52.100;5.056;2023-02-22T04:10:09;101295.56;;;6.08;100.00
49813;BME280;35706;52.100;5.056;2023-02-22T04:11:10;101292.38;;;6.03;100.00
49813;BME280;35706;52.100;5.056;2023-02-22T04:12:10;101292.88;;;5.95;100.00
49813;BME280;35706;52.100;5.056;2023-02-22T04:13:10;101283.81;;;5.86;100.00
49813;BME280;35706;52.100;5.056;2023-02-22T04:14:11;101290.63;;;6.03;100.00
49813;BME280;35706;52.100;5.056;2023-02-22T04:15:14;101284.38;;;5.91;100.00
49813;BME280;35706;52.100;5.056;2023-02-22T04:16:15;101286.81;;;5.95;100.00
49813;BME280;35706;52.100;5.056;2023-02-22T04:17:15;101289.03;;;6.01;100.00
49813;BME280;35706;52.100;5.056;2023-02-22T04:18:15;101283.72;;;5.88;100.00
49813;BME280;35706;52.100;5.056;2023-02-22T04:19:15;101290.06;;;5.84;100.00
49813;BME280;35706;52.100;5.056;2023-02-22T04:20:16;101288.63;;;5.92;100.00
49813;BME280;35706;52.100;5.056;2023-02-22T04:21:18;101282.59;;;5.92;100.00
49813;BME280;35706;52.100;5.056;2023-02-22T04:22:19;101278.63;;;5.86;100.00
49813;BME280;35706;52.100;5.056;2023-02-22T04:23:19;101276.63;;;5.90;100.00
49813;BME280;35706;52.100;5.056;2023-02-22T04:24:19;101277.28;;;5.79;100.00
49813;BME280;35706;52.100;5.056;2023-02-22T04:25:21;101268.63;;;5.79;100.00
49813;BME280;35706;52.100;5.056;2023-02-22T04:26:22;101272.16;;;5.78;100.00
49813;BME280;35706;52.100;5.056;2023-02-22T04:27:22;101266.84;;;5.79;100.00
49813;BME280;35706;52.100;5.056;2023-02-22T04:28:23;101274.16;;;5.74;100.00
49813;BME280;35706;52.100;5.056;2023-02-22T04:29:23;101276.09;;;5.56;100.00
49813;BME280;35706;52.100;5.056;2023-02-22T04:30:23;101272.00;;;5.66;100.00
49813;BME280;35706;52.100;5.056;2023-02-22T04:31:23;101270.72;;;5.59;100.00
49813;BME280;35706;52.100;5.056;2023-02-22T04:32:24;101272.00;;;5.66;100.00
49813;BME280;35706;52.100;5.056;2023-02-22T04:33:27;101276.38;;;5.66;100.00
49813;BME280;35706;52.100;5.056;2023-02-22T04:34:27;101269.97;;;5.71;100.00
49813;BME280;35706;52.100;5.056;2023-02-22T04:35:28;101266.84;;;5.79;100.00
49813;BME280;35706;52.100;5.056;2023-02-22T04:36:31;101262.69;;;5.77;100.00
49813;BME280;35706;52.100;5.056;2023-02-22T04:37:31;101266.97;;;5.63;100.00
49813;BME280;35706;52.100;5.056;2023-02-22T04:38:33;101263.50;;;5.77;100.00
49813;BME280;35706;52.100;5.056;2023-02-22T04:39:34;101258.66;;;5.71;100.00
49813;BME280;35706;52.100;5.056;2023-02-22T04:40:34;101258.13;;;5.80;100.00
49813;BME280;35706;52.100;5.056;2023-02-22T04:41:34;101259.69;;;5.83;100.00
49813;BME280;35706;52.100;5.056;2023-02-22T04:42:35;101255.38;;;5.82;100.00
49813;BME280;35706;52.100;5.056;2023-02-22T04:43:36;101259.22;;;5.90;100.00
49813;BME280;35706;52.100;5.056;2023-02-22T04:44:36;101260.34;;;5.86;100.00
49813;BME280;35706;52.100;5.056;2023-02-22T04:45:37;101261.47;;;5.82;100.00
49813;BME280;35706;52.100;5.056;2023-02-22T04:46:37;101259.13;;;5.78;100.00
49813;BME280;35706;52.100;5.056;2023-02-22T04:47:38;101256.63;;;5.76;100.00
49813;BME280;35706;52.100;5.056;2023-02-22T04:48:38;101261.09;;;5.60;100.00
49813;BME280;35706;52.100;5.056;2023-02-22T04:49:39;101257.66;;;5.74;100.00
49813;BME280;35706;52.100;5.056;2023-02-22T04:50:39;101256.72;;;5.75;100.00
49813;BME280;35706;52.100;5.056;2023-02-22T04:51:40;101258.88;;;5.82;100.00
49813;BME280;35706;52.100;5.056;2023-02-22T04:52:41;101254.47;;;5.68;100.00
49813;BME280;35706;52.100;5.056;2023-02-22T04:53:41;101254.94;;;5.75;100.00
49813;BME280;35706;52.100;5.056;2023-02-22T04:54:42;101250.00;;;5.70;100.00
49813;BME280;35706;52.100;5.056;2023-02-22T04:55:44;101249.72;;;5.75;100.00
49813;BME280;35706;52.100;5.056;2023-02-22T04:56:44;101248.53;;;5.66;100.00
49813;BME280;35706;52.100;5.056;2023-02-22T04:57:45;101244.13;;;5.67;100.00
49813;BME280;35706;52.100;5.056;2023-02-22T04:58:45;101242.38;;;5.67;100.00
49813;BME280;35706;52.100;5.056;2023-02-22T04:59:45;101245.63;;;5.71;100.00
49813;BME280;35706;52.100;5.056;2023-02-22T05:00:46;101240.41;;;5.71;100.00
49813;BME280;35706;52.100;5.056;2023-02-22T05:01:46;101248.31;;;5.84;100.00
49813;BME280;35706;52.100;5.056;2023-02-22T05:02:47;101245.44;;;5.88;100.00
49813;BME280;35706;52.100;5.056;2023-02-22T05:03:48;101237.16;;;5.96;100.00
49813;BME280;35706;52.100;5.056;2023-02-22T05:04:48;101246.34;;;5.87;100.00
49813;BME280;35706;52.100;5.056;2023-02-22T05:05:51;101237.69;;;5.87;100.00
49813;BME280;35706;52.100;5.056;2023-02-22T05:06:51;101240.69;;;5.95;100.00
49813;BME280;35706;52.100;5.056;2023-02-22T05:07:52;101239.34;;;5.88;100.00
49813;BME280;35706;52.100;5.056;2023-02-22T05:08:52;101240.59;;;5.82;100.00
49813;BME280;35706;52.100;5.056;2023-02-22T05:09:53;101231.81;;;5.83;100.00
49813;BME280;35706;52.100;5.056;2023-02-22T05:10:53;101235.19;;;5.85;100.00
49813;BME280;35706;52.100;5.056;2023-02-22T05:11:54;101235.38;;;5.82;100.00
49813;BME280;35706;52.100;5.056;2023-02-22T05:12:54;101233.31;;;5.87;100.00
49813;BME280;35706;52.100;5.056;2023-02-22T05:13:54;101235.00;;;5.88;100.00
49813;BME280;35706;52.100;5.056;2023-02-22T05:14:54;101227.38;;;5.71;100.00
49813;BME280;35706;52.100;5.056;2023-02-22T05:15:55;101225.88;;;5.67;100.00
49813;BME280;35706;52.100;5.056;2023-02-22T05:16:56;101229.22;;;5.69;100.00
49813;BME280;35706;52.100;5.056;2023-02-22T05:17:56;101223.63;;;5.75;100.00
49813;BME280;35706;52.100;5.056;2023-02-22T05:18:57;101224.56;;;5.88;100.00
49813;BME280;35706;52.100;5.056;2023-02-22T05:19:57;101222.22;;;5.98;100.00
49813;BME280;35706;52.100;5.056;2023-02-22T05:20:58;101221.66;;;5.93;100.00
49813;BME280;35706;52.100;5.056;2023-02-22T05:21:58;101222.69;;;5.90;100.00
49813;BME280;35706;52.100;5.056;2023-02-22T05:23:02;101224.94;;;5.82;100.00
49813;BME280;35706;52.100;5.056;2023-02-22T05:24:02;101210.22;;;5.81;100.00
49813;BME280;35706;52.100;5.056;2023-02-22T05:25:03;101216.38;;;5.80;100.00
49813;BME280;35706;52.100;5.056;2023-02-22T05:26:04;101219.81;;;5.95;100.00
49813;BME280;35706;52.100;5.056;2023-02-22T05:27:05;101215.22;;;5.99;100.00
49813;BME280;35706;52.100;5.056;2023-02-22T05:28:14;101226.53;;;5.99;100.00
49813;BME280;35706;52.100;5.056;2023-02-22T05:29:14;101219.34;;;5.88;100.00
49813;BME280;35706;52.100;5.056;2023-02-22T05:30:14;101226.25;;;5.75;100.00
49813;BME280;35706;52.100;5.056;2023-02-22T05:31:15;101224.00;;;5.83;100.00
49813;BME280;35706;52.100;5.056;2023-02-22T05:32:16;101217.22;;;5.81;100.00
49813;BME280;35706;52.100;5.056;2023-02-22T05:33:16;101219.25;;;5.76;100.00
49813;BME280;35706;52.100;5.056;2023-02-22T05:34:17;101219.06;;;5.79;100.00
49813;BME280;35706;52.100;5.056;2023-02-22T05:35:21;101230.91;;;5.70;100.00
49813;BME280;35706;52.100;5.056;2023-02-22T05:36:22;101223.19;;;5.54;100.00
49813;BME280;35706;52.100;5.056;2023-02-22T05:37:23;101224.50;;;5.61;100.00
49813;BME280;35706;52.100;5.056;2023-02-22T05:38:23;101226.00;;;5.65;100.00
49813;BME280;35706;52.100;5.056;2023-02-22T05:39:23;101228.97;;;5.59;100.00
49813;BME280;35706;52.100;5.056;2023-02-22T05:40:25;101222.00;;;5.60;100.00
49813;BME280;35706;52.100;5.056;2023-02-22T05:41:27;101226.53;;;5.56;100.00
49813;BME280;35706;52.100;5.056;2023-02-22T05:42:27;101225.25;;;5.63;100.00
49813;BME280;35706;52.100;5.056;2023-02-22T05:43:27;101222.16;;;5.71;100.00
49813;BME280;35706;52.100;5.056;2023-02-22T05:44:28;101230.53;;;5.76;100.00
49813;BME280;35706;52.100;5.056;2023-02-22T05:45:28;101228.03;;;5.60;100.00
49813;BME280;35706;52.100;5.056;2023-02-22T05:46:29;101223.66;;;5.61;100.00
49813;BME280;35706;52.100;5.056;2023-02-22T05:47:29;101219.75;;;5.54;100.00
49813;BME280;35706;52.100;5.056;2023-02-22T05:48:29;101212.47;;;5.59;100.00
49813;BME280;35706;52.100;5.056;2023-02-22T05:49:30;101216.22;;;5.55;100.00
49813;BME280;35706;52.100;5.056;2023-02-22T05:50:30;101211.84;;;5.55;100.00
49813;BME280;35706;52.100;5.056;2023-02-22T05:51:32;101207.09;;;5.62;100.00
49813;BME280;35706;52.100;5.056;2023-02-22T05:52:32;101210.22;;;5.67;100.00
49813;BME280;35706;52.100;5.056;2023-02-22T05:53:32;101211.63;;;5.72;100.00
49813;BME280;35706;52.100;5.056;2023-02-22T05:54:33;101214.31;;;5.71;100.00